sensor_id;sensor_type;location;lat;lon;timestamp;P1;durP1;ratioP1;P2;durP2;ratioP2
13720;SDS011;6932;51.438;5.470;2023-07-24T00:02:02;2.93;;;2.10;;
13720;SDS011;6932;51.438;5.470;2023-07-24T00:04:30;3.90;;;1.80;;
13720;SDS011;6932;51.438;5.470;2023-07-24T00:06:57;3.37;;;2.00;;
13720;SDS011;6932;51.438;5.470;2023-07-24T00:09:22;2.10;;;1.90;;
13720;SDS011;6932;51.438;5.470;2023-07-24T00:11:49;2.30;;;1.97;;
13720;SDS011;6932;51.438;5.470;2023-07-24T00:14:15;3.33;;;2.03;;
13720;SDS011;6932;51.438;5.470;2023-07-24T00:16:41;5.60;;;2.07;;
13720;SDS011;6932;51.438;5.470;2023-07-24T00:19:07;2.33;;;1.80;;
13720;SDS011;6932;51.438;5.470;2023-07-24T00:21:33;2.63;;;2.10;;
13720;SDS011;6932;51.438;5.470;2023-07-24T00:23:58;2.40;;;1.90;;
13720;SDS011;6932;51.438;5.470;2023-07-24T00:26:24;3.67;;;1.80;;
13720;SDS011;6932;51.438;5.470;2023-07-24T00:28:50;2.50;;;1.90;;
13720;SDS011;6932;51.438;5.470;2023-07-24T00:31:16;3.47;;;2.00;;
13720;SDS011;6932;51.438;5.470;2023-07-24T00:33:42;2.47;;;1.80;;
13720;SDS011;6932;51.438;5.470;2023-07-24T00:36:07;2.43;;;2.00;;
13720;SDS011;6932;51.438;5.470;2023-07-24T00:38:33;3.20;;;1.80;;
13720;SDS011;6932;51.438;5.470;2023-07-24T00:40:59;2.33;;;1.93;;
13720;SDS011;6932;51.438;5.470;2023-07-24T00:43:25;3.57;;;2.07;;
13720;SDS011;6932;51.438;5.470;2023-07-24T00:45:50;2.67;;;2.23;;
13720;SDS011;6932;51.438;5.470;2023-07-24T00:48:16;3.43;;;2.30;;
13720;SDS011;6932;51.438;5.470;2023-07-24T00:50:43;4.00;;;2.30;;
13720;SDS011;6932;51.438;5.470;2023-07-24T00:53:11;2.77;;;2.20;;
13720;SDS011;6932;51.438;5.470;2023-07-24T00:55:38;3.10;;;2.20;;
13720;SDS011;6932;51.438;5.470;2023-07-24T00:58:05;3.00;;;2.10;;
13720;SDS011;6932;51.438;5.470;2023-07-24T01:00:31;4.33;;;2.27;;
13720;SDS011;6932;51.438;5.470;2023-07-24T01:02:59;2.97;;;2.17;;
13720;SDS011;6932;51.438;5.470;2023-07-24T01:05:25;3.83;;;2.20;;
13720;SDS011;6932;51.438;5.470;2023-07-24T01:07:54;3.00;;;2.50;;
13720;SDS011;6932;51.438;5.470;2023-07-24T01:10:20;3.90;;;2.37;;
13720;SDS011;6932;51.438;5.470;2023-07-24T01:13:02;3.20;;;2.33;;
13720;SDS011;6932;51.438;5.470;2023-07-24T01:15:42;5.47;;;2.50;;
13720;SDS011;6932;51.438;5.470;2023-07-24T01:18:25;3.77;;;2.50;;
13720;SDS011;6932;51.438;5.470;2023-07-24T01:20:56;3.63;;;2.57;;
13720;SDS011;6932;51.438;5.470;2023-07-24T01:23:30;4.33;;;2.70;;
13720;SDS011;6932;51.438;5.470;2023-07-24T01:26:15;3.33;;;2.50;;
13720;SDS011;6932;51.438;5.470;2023-07-24T01:28:41;2.93;;;2.57;;
13720;SDS011;6932;51.438;5.470;2023-07-24T01:31:07;3.67;;;2.70;;
13720;SDS011;6932;51.438;5.470;2023-07-24T01:33:33;7.17;;;2.70;;
13720;SDS011;6932;51.438;5.470;2023-07-24T01:36:00;4.17;;;2.40;;
13720;SDS011;6932;51.438;5.470;2023-07-24T01:38:28;4.90;;;2.70;;
13720;SDS011;6932;51.438;5.470;2023-07-24T01:40:59;4.20;;;2.90;;
13720;SDS011;6932;51.438;5.470;2023-07-24T01:43:25;3.77;;;2.50;;
13720;SDS011;6932;51.438;5.470;2023-07-24T01:45:52;5.40;;;3.07;;
13720;SDS011;6932;51.438;5.470;2023-07-24T01:48:18;4.33;;;2.87;;
13720;SDS011;6932;51.438;5.470;2023-07-24T01:50:44;4.77;;;2.97;;
13720;SDS011;6932;51.438;5.470;2023-07-24T01:53:09;5.00;;;2.90;;
13720;SDS011;6932;51.438;5.470;2023-07-24T01:55:35;4.07;;;2.70;;
13720;SDS011;6932;51.438;5.470;2023-07-24T01:58:01;4.07;;;2.90;;
13720;SDS011;6932;51.438;5.470;2023-07-24T02:00:27;4.63;;;2.97;;
13720;SDS011;6932;51.438;5.470;2023-07-24T02:02:52;4.57;;;3.10;;
13720;SDS011;6932;51.438;5.470;2023-07-24T02:05:18;7.20;;;4.60;;
13720;SDS011;6932;51.438;5.470;2023-07-24T02:07:44;5.77;;;3.83;;
13720;SDS011;6932;51.438;5.470;2023-07-24T02:10:10;5.03;;;3.30;;
13720;SDS011;6932;51.438;5.470;2023-07-24T02:12:35;5.17;;;3.03;;
13720;SDS011;6932;51.438;5.470;2023-07-24T02:15:01;5.60;;;3.20;;
13720;SDS011;6932;51.438;5.470;2023-07-24T02:17:27;5.90;;;3.40;;
13720;SDS011;6932;51.438;5.470;2023-07-24T02:19:53;4.30;;;3.30;;
13720;SDS011;6932;51.438;5.470;2023-07-24T02:22:19;4.23;;;3.30;;
13720;SDS011;6932;51.438;5.470;2023-07-24T02:24:44;6.47;;;3.57;;
13720;SDS011;6932;51.438;5.470;2023-07-24T02:27:12;4.40;;;3.30;;
13720;SDS011;6932;51.438;5.470;2023-07-24T02:29:41;4.93;;;3.63;;
13720;SDS011;6932;51.438;5.470;2023-07-24T02:32:07;4.20;;;3.33;;
13720;SDS011;6932;51.438;5.470;2023-07-24T02:34:33;5.77;;;3.80;;
13720;SDS011;6932;51.438;5.470;2023-07-24T02:36:58;4.00;;;3.13;;
13720;SDS011;6932;51.438;5.470;2023-07-24T02:39:24;4.27;;;2.70;;
13720;SDS011;6932;51.438;5.470;2023-07-24T02:41:50;2.43;;;2.20;;
13720;SDS011;6932;51.438;5.470;2023-07-24T02:44:15;3.43;;;2.40;;
13720;SDS011;6932;51.438;5.470;2023-07-24T02:46:41;3.13;;;2.50;;
13720;SDS011;6932;51.438;5.470;2023-07-24T02:49:07;4.53;;;2.43;;
13720;SDS011;6932;51.438;5.470;2023-07-24T02:51:33;3.33;;;2.50;;
13720;SDS011;6932;51.438;5.470;2023-07-24T02:53:58;2.63;;;2.43;;
13720;SDS011;6932;51.438;5.470;2023-07-24T02:56:25;2.23;;;2.03;;
13720;SDS011;6932;51.438;5.470;2023-07-24T02:58:50;2.20;;;1.80;;
13720;SDS011;6932;51.438;5.470;2023-07-24T03:01:16;2.20;;;1.70;;
13720;SDS011;6932;51.438;5.470;2023-07-24T03:03:42;2.27;;;1.90;;
13720;SDS011;6932;51.438;5.470;2023-07-24T03:06:08;2.10;;;1.90;;
13720;SDS011;6932;51.438;5.470;2023-07-24T03:08:33;1.80;;;1.70;;
13720;SDS011;6932;51.438;5.470;2023-07-24T03:10:59;3.27;;;1.83;;
13720;SDS011;6932;51.438;5.470;2023-07-24T03:13:27;1.60;;;1.50;;
13720;SDS011;6932;51.438;5.470;2023-07-24T03:15:53;1.57;;;1.47;;
13720;SDS011;6932;51.438;5.470;2023-07-24T03:18:21;1.50;;;1.40;;
13720;SDS011;6932;51.438;5.470;2023-07-24T03:20:47;1.80;;;1.50;;
13720;SDS011;6932;51.438;5.470;2023-07-24T03:23:13;1.67;;;1.57;;
13720;SDS011;6932;51.438;5.470;2023-07-24T03:25:39;2.33;;;1.80;;
13720;SDS011;6932;51.438;5.470;2023-07-24T03:28:05;1.57;;;1.47;;
13720;SDS011;6932;51.438;5.470;2023-07-24T03:30:31;1.63;;;1.50;;
13720;SDS011;6932;51.438;5.470;2023-07-24T03:32:57;1.73;;;1.50;;
13720;SDS011;6932;51.438;5.470;2023-07-24T03:35:23;1.60;;;1.50;;
13720;SDS011;6932;51.438;5.470;2023-07-24T03:37:49;2.20;;;1.80;;
13720;SDS011;6932;51.438;5.470;2023-07-24T03:40:15;2.90;;;1.90;;
13720;SDS011;6932;51.438;5.470;2023-07-24T03:42:40;1.70;;;1.60;;
13720;SDS011;6932;51.438;5.470;2023-07-24T03:45:07;1.77;;;1.67;;
13720;SDS011;6932;51.438;5.470;2023-07-24T03:47:33;1.90;;;1.70;;
13720;SDS011;6932;51.438;5.470;2023-07-24T03:49:59;1.80;;;1.70;;
13720;SDS011;6932;51.438;5.470;2023-07-24T03:52:25;2.57;;;1.80;;
13720;SDS011;6932;51.438;5.470;2023-07-24T03:54:51;1.87;;;1.47;;
13720;SDS011;6932;51.438;5.470;2023-07-24T03:57:17;1.60;;;1.50;;
13720;SDS011;6932;51.438;5.470;2023-07-24T03:59:43;2.23;;;1.70;;
13720;SDS011;6932;51.438;5.470;2023-07-24T04:02:09;2.20;;;1.73;;
13720;SDS011;6932;51.438;5.470;2023-07-24T04:04:35;1.93;;;1.73;;
13720;SDS011;6932;51.438;5.470;2023-07-24T04:07:02;2.30;;;1.70;;
13720;SDS011;6932;51.438;5.470;2023-07-24T04:09:29;2.83;;;1.60;;
13720;SDS011;6932;51.438;5.470;2023-07-24T04:11:54;1.60;;;1.50;;
13720;SDS011;6932;51.438;5.470;2023-07-24T04:14:20;2.00;;;1.80;;
13720;SDS011;6932;51.438;5.470;2023-07-24T04:16:46;2.10;;;1.73;;
13720;SDS011;6932;51.438;5.470;2023-07-24T04:19:12;2.53;;;1.70;;
13720;SDS011;6932;51.438;5.470;2023-07-24T04:21:38;2.23;;;1.83;;
13720;SDS011;6932;51.438;5.470;2023-07-24T04:24:03;2.13;;;1.60;;
13720;SDS011;6932;51.438;5.470;2023-07-24T04:26:29;2.13;;;1.87;;
13720;SDS011;6932;51.438;5.470;2023-07-24T04:28:55;2.30;;;1.70;;
13720;SDS011;6932;51.438;5.470;2023-07-24T04:31:21;2.17;;;1.93;;
13720;SDS011;6932;51.438;5.470;2023-07-24T04:33:47;2.07;;;1.73;;
13720;SDS011;6932;51.438;5.470;2023-07-24T04:36:12;2.07;;;1.80;;
13720;SDS011;6932;51.438;5.470;2023-07-24T04:38:38;2.20;;;1.70;;
13720;SDS011;6932;51.438;5.470;2023-07-24T04:41:04;2.27;;;1.83;;
13720;SDS011;6932;51.438;5.470;2023-07-24T04:43:29;2.23;;;1.80;;
13720;SDS011;6932;51.438;5.470;2023-07-24T04:45:55;3.27;;;1.97;;
13720;SDS011;6932;51.438;5.470;2023-07-24T04:48:21;3.13;;;2.10;;
13720;SDS011;6932;51.438;5.470;2023-07-24T04:50:52;1.90;;;1.70;;
13720;SDS011;6932;51.438;5.470;2023-07-24T04:53:22;2.20;;;2.00;;
13720;SDS011;6932;51.438;5.470;2023-07-24T04:55:48;2.07;;;1.80;;
13720;SDS011;6932;51.438;5.470;2023-07-24T04:58:14;3.13;;;1.80;;
13720;SDS011;6932;51.438;5.470;2023-07-24T05:00:40;2.10;;;1.90;;
13720;SDS011;6932;51.438;5.470;2023-07-24T05:03:06;2.07;;;1.80;;
13720;SDS011;6932;51.438;5.470;2023-07-24T05:05:35;1.80;;;1.70;;
13720;SDS011;6932;51.438;5.470;2023-07-24T05:08:04;2.00;;;1.80;;
13720;SDS011;6932;51.438;5.470;2023-07-24T05:10:34;2.47;;;1.97;;
13720;SDS011;6932;51.438;5.470;2023-07-24T05:13:01;2.13;;;1.90;;
13720;SDS011;6932;51.438;5.470;2023-07-24T05:15:27;2.50;;;2.20;;
13720;SDS011;6932;51.438;5.470;2023-07-24T05:17:52;2.50;;;2.23;;
13720;SDS011;6932;51.438;5.470;2023-07-24T05:20:18;2.47;;;2.00;;
13720;SDS011;6932;51.438;5.470;2023-07-24T05:22:44;2.93;;;2.20;;
13720;SDS011;6932;51.438;5.470;2023-07-24T05:25:10;2.43;;;2.20;;
13720;SDS011;6932;51.438;5.470;2023-07-24T05:27:36;2.80;;;2.27;;
13720;SDS011;6932;51.438;5.470;2023-07-24T05:30:02;2.80;;;2.40;;
13720;SDS011;6932;51.438;5.470;2023-07-24T05:32:29;2.57;;;2.20;;
13720;SDS011;6932;51.438;5.470;2023-07-24T05:34:55;2.70;;;2.30;;
13720;SDS011;6932;51.438;5.470;2023-07-24T05:37:21;2.83;;;2.30;;
13720;SDS011;6932;51.438;5.470;2023-07-24T05:39:46;3.20;;;2.30;;
13720;SDS011;6932;51.438;5.470;2023-07-24T05:42:12;2.20;;;2.00;;
13720;SDS011;6932;51.438;5.470;2023-07-24T05:44:38;3.03;;;2.33;;
13720;SDS011;6932;51.438;5.470;2023-07-24T05:47:04;3.57;;;2.50;;
13720;SDS011;6932;51.438;5.470;2023-07-24T05:49:29;3.50;;;2.60;;
13720;SDS011;6932;51.438;5.470;2023-07-24T05:51:55;3.13;;;2.50;;
13720;SDS011;6932;51.438;5.470;2023-07-24T05:54:22;2.63;;;2.43;;
13720;SDS011;6932;51.438;5.470;2023-07-24T05:56:48;2.80;;;2.50;;
13720;SDS011;6932;51.438;5.470;2023-07-24T05:59:14;3.10;;;2.43;;
13720;SDS011;6932;51.438;5.470;2023-07-24T06:01:39;2.90;;;2.33;;
13720;SDS011;6932;51.438;5.470;2023-07-24T06:04:05;4.07;;;2.53;;
13720;SDS011;6932;51.438;5.470;2023-07-24T06:06:32;2.50;;;2.30;;
13720;SDS011;6932;51.438;5.470;2023-07-24T06:08:58;2.87;;;2.57;;
13720;SDS011;6932;51.438;5.470;2023-07-24T06:11:24;2.70;;;2.40;;
13720;SDS011;6932;51.438;5.470;2023-07-24T06:13:51;3.10;;;2.50;;
13720;SDS011;6932;51.438;5.470;2023-07-24T06:16:17;2.90;;;2.50;;
13720;SDS011;6932;51.438;5.470;2023-07-24T06:18:43;3.23;;;2.50;;
13720;SDS011;6932;51.438;5.470;2023-07-24T06:21:09;2.33;;;2.10;;
13720;SDS011;6932;51.438;5.470;2023-07-24T06:23:35;2.43;;;2.23;;
13720;SDS011;6932;51.438;5.470;2023-07-24T06:26:01;3.33;;;2.30;;
13720;SDS011;6932;51.438;5.470;2023-07-24T06:28:27;2.27;;;2.00;;
13720;SDS011;6932;51.438;5.470;2023-07-24T06:30:53;2.60;;;2.20;;
13720;SDS011;6932;51.438;5.470;2023-07-24T06:33:20;2.57;;;1.80;;
13720;SDS011;6932;51.438;5.470;2023-07-24T06:35:47;3.53;;;2.20;;
13720;SDS011;6932;51.438;5.470;2023-07-24T06:38:15;3.10;;;2.20;;
13720;SDS011;6932;51.438;5.470;2023-07-24T06:40:41;2.70;;;2.20;;
13720;SDS011;6932;51.438;5.470;2023-07-24T06:43:07;2.97;;;2.10;;
13720;SDS011;6932;51.438;5.470;2023-07-24T06:45:33;2.53;;;2.33;;
13720;SDS011;6932;51.438;5.470;2023-07-24T06:47:58;2.30;;;1.97;;
13720;SDS011;6932;51.438;5.470;2023-07-24T06:50:24;2.57;;;2.20;;
13720;SDS011;6932;51.438;5.470;2023-07-24T06:52:50;2.30;;;1.87;;
13720;SDS011;6932;51.438;5.470;2023-07-24T06:55:16;3.30;;;1.87;;
13720;SDS011;6932;51.438;5.470;2023-07-24T06:57:42;2.97;;;1.80;;
13720;SDS011;6932;51.438;5.470;2023-07-24T07:00:08;3.53;;;2.40;;
13720;SDS011;6932;51.438;5.470;2023-07-24T07:02:36;2.20;;;2.00;;
13720;SDS011;6932;51.438;5.470;2023-07-24T07:05:03;2.20;;;1.90;;
13720;SDS011;6932;51.438;5.470;2023-07-24T07:07:30;2.73;;;2.23;;
13720;SDS011;6932;51.438;5.470;2023-07-24T07:09:56;2.87;;;2.30;;
13720;SDS011;6932;51.438;5.470;2023-07-24T07:12:22;2.50;;;2.00;;
13720;SDS011;6932;51.438;5.470;2023-07-24T07:14:47;2.67;;;2.07;;
13720;SDS011;6932;51.438;5.470;2023-07-24T07:17:13;2.87;;;2.30;;
13720;SDS011;6932;51.438;5.470;2023-07-24T07:19:39;2.93;;;2.17;;
13720;SDS011;6932;51.438;5.470;2023-07-24T07:22:05;3.93;;;2.20;;
13720;SDS011;6932;51.438;5.470;2023-07-24T07:24:31;3.10;;;2.30;;
13720;SDS011;6932;51.438;5.470;2023-07-24T07:26:57;3.83;;;2.17;;
13720;SDS011;6932;51.438;5.470;2023-07-24T07:29:22;3.63;;;2.57;;
13720;SDS011;6932;51.438;5.470;2023-07-24T07:31:48;2.60;;;2.17;;
13720;SDS011;6932;51.438;5.470;2023-07-24T07:34:14;2.87;;;2.23;;
13720;SDS011;6932;51.438;5.470;2023-07-24T07:36:39;3.10;;;2.40;;
13720;SDS011;6932;51.438;5.470;2023-07-24T07:39:05;4.30;;;2.70;;
13720;SDS011;6932;51.438;5.470;2023-07-24T07:41:31;3.63;;;2.27;;
13720;SDS011;6932;51.438;5.470;2023-07-24T07:43:57;3.07;;;2.30;;
13720;SDS011;6932;51.438;5.470;2023-07-24T07:46:22;4.43;;;2.67;;
13720;SDS011;6932;51.438;5.470;2023-07-24T07:48:48;3.10;;;2.40;;
13720;SDS011;6932;51.438;5.470;2023-07-24T07:51:14;3.40;;;2.60;;
13720;SDS011;6932;51.438;5.470;2023-07-24T07:53:40;4.07;;;2.90;;
13720;SDS011;6932;51.438;5.470;2023-07-24T07:56:06;6.13;;;3.10;;
13720;SDS011;6932;51.438;5.470;2023-07-24T07:58:32;4.17;;;2.63;;
13720;SDS011;6932;51.438;5.470;2023-07-24T08:01:02;4.30;;;2.73;;
13720;SDS011;6932;51.438;5.470;2023-07-24T08:03:31;3.07;;;2.50;;
13720;SDS011;6932;51.438;5.470;2023-07-24T08:05:58;3.57;;;2.60;;
13720;SDS011;6932;51.438;5.470;2023-07-24T08:08:24;3.70;;;2.40;;
13720;SDS011;6932;51.438;5.470;2023-07-24T08:10:50;2.70;;;2.30;;
13720;SDS011;6932;51.438;5.470;2023-07-24T08:13:15;2.87;;;2.40;;
13720;SDS011;6932;51.438;5.470;2023-07-24T08:15:41;2.97;;;2.40;;
13720;SDS011;6932;51.438;5.470;2023-07-24T08:18:07;3.27;;;2.47;;
13720;SDS011;6932;51.438;5.470;2023-07-24T08:20:35;4.20;;;2.77;;
13720;SDS011;6932;51.438;5.470;2023-07-24T08:23:02;3.60;;;2.73;;
13720;SDS011;6932;51.438;5.470;2023-07-24T08:25:28;3.10;;;2.53;;
13720;SDS011;6932;51.438;5.470;2023-07-24T08:27:54;3.63;;;2.80;;
13720;SDS011;6932;51.438;5.470;2023-07-24T08:30:19;5.47;;;2.87;;
13720;SDS011;6932;51.438;5.470;2023-07-24T08:32:46;3.60;;;2.70;;
13720;SDS011;6932;51.438;5.470;2023-07-24T08:35:15;4.77;;;3.17;;
13720;SDS011;6932;51.438;5.470;2023-07-24T08:37:44;4.23;;;3.00;;
13720;SDS011;6932;51.438;5.470;2023-07-24T08:40:10;3.03;;;2.60;;
13720;SDS011;6932;51.438;5.470;2023-07-24T08:42:39;4.00;;;2.77;;
13720;SDS011;6932;51.438;5.470;2023-07-24T08:45:11;4.23;;;2.80;;
13720;SDS011;6932;51.438;5.470;2023-07-24T08:47:41;4.43;;;3.70;;
13720;SDS011;6932;51.438;5.470;2023-07-24T08:50:10;5.10;;;3.10;;
13720;SDS011;6932;51.438;5.470;2023-07-24T08:52:40;4.10;;;3.03;;
13720;SDS011;6932;51.438;5.470;2023-07-24T08:55:08;3.80;;;2.93;;
13720;SDS011;6932;51.438;5.470;2023-07-24T08:57:34;3.20;;;2.80;;
13720;SDS011;6932;51.438;5.470;2023-07-24T09:00:00;4.57;;;3.03;;
13720;SDS011;6932;51.438;5.470;2023-07-24T09:02:33;5.50;;;3.50;;
13720;SDS011;6932;51.438;5.470;2023-07-24T09:05:00;4.87;;;3.33;;
13720;SDS011;6932;51.438;5.470;2023-07-24T09:07:27;4.13;;;3.00;;
13720;SDS011;6932;51.438;5.470;2023-07-24T09:09:55;4.90;;;3.40;;
13720;SDS011;6932;51.438;5.470;2023-07-24T09:12:21;3.90;;;3.13;;
13720;SDS011;6932;51.438;5.470;2023-07-24T09:14:48;4.20;;;3.30;;
13720;SDS011;6932;51.438;5.470;2023-07-24T09:17:25;3.93;;;3.10;;
13720;SDS011;6932;51.438;5.470;2023-07-24T09:19:55;4.10;;;3.30;;
13720;SDS011;6932;51.438;5.470;2023-07-24T09:22:22;5.17;;;3.33;;
13720;SDS011;6932;51.438;5.470;2023-07-24T09:24:51;4.87;;;3.30;;
13720;SDS011;6932;51.438;5.470;2023-07-24T09:27:26;3.60;;;2.87;;
13720;SDS011;6932;51.438;5.470;2023-07-24T09:29:55;3.87;;;2.80;;
13720;SDS011;6932;51.438;5.470;2023-07-24T09:32:25;5.23;;;2.80;;
13720;SDS011;6932;51.438;5.470;2023-07-24T09:34:52;4.00;;;2.90;;
13720;SDS011;6932;51.438;5.470;2023-07-24T09:39:58;3.77;;;2.93;;
13720;SDS011;6932;51.438;5.470;2023-07-24T09:42:28;3.70;;;2.70;;
13720;SDS011;6932;51.438;5.470;2023-07-24T09:44:59;5.93;;;2.90;;
13720;SDS011;6932;51.438;5.470;2023-07-24T09:47:29;4.93;;;3.30;;
13720;SDS011;6932;51.438;5.470;2023-07-24T09:49:56;3.20;;;2.73;;
13720;SDS011;6932;51.438;5.470;2023-07-24T09:52:23;4.13;;;2.67;;
13720;SDS011;6932;51.438;5.470;2023-07-24T09:55:04;4.03;;;2.90;;
13720;SDS011;6932;51.438;5.470;2023-07-24T09:57:44;3.80;;;2.93;;
13720;SDS011;6932;51.438;5.470;2023-07-24T10:00:11;4.33;;;3.00;;
13720;SDS011;6932;51.438;5.470;2023-07-24T10:02:38;4.70;;;2.97;;
13720;SDS011;6932;51.438;5.470;2023-07-24T10:05:05;3.87;;;3.00;;
13720;SDS011;6932;51.438;5.470;2023-07-24T10:07:32;3.77;;;2.90;;
13720;SDS011;6932;51.438;5.470;2023-07-24T10:09:58;3.67;;;2.60;;
13720;SDS011;6932;51.438;5.470;2023-07-24T10:12:26;4.20;;;2.90;;
13720;SDS011;6932;51.438;5.470;2023-07-24T10:14:53;3.03;;;2.73;;
13720;SDS011;6932;51.438;5.470;2023-07-24T10:17:36;3.70;;;2.70;;
13720;SDS011;6932;51.438;5.470;2023-07-24T10:20:04;3.13;;;2.57;;
13720;SDS011;6932;51.438;5.470;2023-07-24T10:22:32;3.20;;;2.90;;
13720;SDS011;6932;51.438;5.470;2023-07-24T10:24:58;3.40;;;2.87;;
13720;SDS011;6932;51.438;5.470;2023-07-24T10:27:25;3.73;;;2.80;;
13720;SDS011;6932;51.438;5.470;2023-07-24T10:29:59;3.80;;;2.87;;
13720;SDS011;6932;51.438;5.470;2023-07-24T10:32:29;3.47;;;2.80;;
13720;SDS011;6932;51.438;5.470;2023-07-24T10:35:17;4.10;;;3.00;;
13720;SDS011;6932;51.438;5.470;2023-07-24T10:37:42;3.53;;;2.80;;
13720;SDS011;6932;51.438;5.470;2023-07-24T10:40:18;3.60;;;2.83;;
13720;SDS011;6932;51.438;5.470;2023-07-24T10:42:46;3.97;;;2.80;;
13720;SDS011;6932;51.438;5.470;2023-07-24T10:45:11;3.73;;;3.03;;
13720;SDS011;6932;51.438;5.470;2023-07-24T10:47:37;3.47;;;2.90;;
13720;SDS011;6932;51.438;5.470;2023-07-24T10:50:03;3.27;;;2.80;;
13720;SDS011;6932;51.438;5.470;2023-07-24T10:52:30;2.60;;;2.40;;
13720;SDS011;6932;51.438;5.470;2023-07-24T10:54:59;3.60;;;2.80;;
13720;SDS011;6932;51.438;5.470;2023-07-24T10:57:27;3.40;;;2.80;;
13720;SDS011;6932;51.438;5.470;2023-07-24T10:59:54;3.37;;;2.80;;
13720;SDS011;6932;51.438;5.470;2023-07-24T11:02:20;4.33;;;2.60;;
13720;SDS011;6932;51.438;5.470;2023-07-24T11:04:46;3.33;;;2.50;;
13720;SDS011;6932;51.438;5.470;2023-07-24T11:07:15;3.47;;;2.57;;
13720;SDS011;6932;51.438;5.470;2023-07-24T15:02:57;3.90;;;3.00;;
13720;SDS011;6932;51.438;5.470;2023-07-24T15:05:23;4.40;;;3.50;;
13720;SDS011;6932;51.438;5.470;2023-07-24T15:07:48;5.30;;;3.43;;
13720;SDS011;6932;51.438;5.470;2023-07-24T15:10:14;4.43;;;3.60;;
13720;SDS011;6932;51.438;5.470;2023-07-24T15:12:40;5.80;;;4.00;;
13720;SDS011;6932;51.438;5.470;2023-07-24T15:15:06;5.67;;;3.80;;
13720;SDS011;6932;51.438;5.470;2023-07-24T15:17:32;5.43;;;4.17;;
13720;SDS011;6932;51.438;5.470;2023-07-24T15:19:58;6.10;;;4.03;;
13720;SDS011;6932;51.438;5.470;2023-07-24T15:22:23;7.00;;;4.10;;
13720;SDS011;6932;51.438;5.470;2023-07-24T15:24:49;6.13;;;4.20;;
13720;SDS011;6932;51.438;5.470;2023-07-24T15:27:15;4.80;;;3.70;;
13720;SDS011;6932;51.438;5.470;2023-07-24T15:29:40;4.27;;;3.10;;
13720;SDS011;6932;51.438;5.470;2023-07-24T15:32:06;5.30;;;3.70;;
13720;SDS011;6932;51.438;5.470;2023-07-24T15:34:32;4.97;;;3.97;;
13720;SDS011;6932;51.438;5.470;2023-07-24T15:36:58;5.10;;;3.70;;
13720;SDS011;6932;51.438;5.470;2023-07-24T15:39:24;5.13;;;3.77;;
13720;SDS011;6932;51.438;5.470;2023-07-24T15:41:50;6.23;;;4.13;;
13720;SDS011;6932;51.438;5.470;2023-07-24T15:44:15;6.07;;;4.23;;
13720;SDS011;6932;51.438;5.470;2023-07-24T15:46:41;5.63;;;4.10;;
13720;SDS011;6932;51.438;5.470;2023-07-24T15:49:07;5.17;;;3.77;;
13720;SDS011;6932;51.438;5.470;2023-07-24T15:51:33;5.73;;;3.90;;
13720;SDS011;6932;51.438;5.470;2023-07-24T15:53:59;6.57;;;4.30;;
13720;SDS011;6932;51.438;5.470;2023-07-24T15:56:25;5.60;;;4.37;;
13720;SDS011;6932;51.438;5.470;2023-07-24T15:58:51;6.97;;;4.63;;
13720;SDS011;6932;51.438;5.470;2023-07-24T16:01:17;5.90;;;4.60;;
13720;SDS011;6932;51.438;5.470;2023-07-24T16:03:43;7.03;;;4.70;;
13720;SDS011;6932;51.438;5.470;2023-07-24T16:06:10;6.10;;;4.53;;
13720;SDS011;6932;51.438;5.470;2023-07-24T16:08:36;5.50;;;3.80;;
13720;SDS011;6932;51.438;5.470;2023-07-24T16:11:03;5.07;;;3.30;;
13720;SDS011;6932;51.438;5.470;2023-07-24T16:13:33;6.60;;;4.03;;
13720;SDS011;6932;51.438;5.470;2023-07-24T16:16:05;6.67;;;4.60;;
13720;SDS011;6932;51.438;5.470;2023-07-24T16:18:31;6.00;;;4.53;;
13720;SDS011;6932;51.438;5.470;2023-07-24T16:20:58;6.73;;;4.63;;
13720;SDS011;6932;51.438;5.470;2023-07-24T16:23:24;6.93;;;4.40;;
13720;SDS011;6932;51.438;5.470;2023-07-24T16:25:50;7.60;;;5.10;;
13720;SDS011;6932;51.438;5.470;2023-07-24T16:28:16;8.20;;;4.93;;
13720;SDS011;6932;51.438;5.470;2023-07-24T16:30:41;6.70;;;5.00;;
13720;SDS011;6932;51.438;5.470;2023-07-24T16:33:07;7.10;;;5.10;;
13720;SDS011;6932;51.438;5.470;2023-07-24T16:35:33;9.20;;;4.97;;
13720;SDS011;6932;51.438;5.470;2023-07-24T16:37:59;8.17;;;4.97;;
13720;SDS011;6932;51.438;5.470;2023-07-24T16:40:25;5.77;;;4.83;;
13720;SDS011;6932;51.438;5.470;2023-07-24T16:42:50;7.53;;;4.70;;
13720;SDS011;6932;51.438;5.470;2023-07-24T16:45:16;5.80;;;4.63;;
13720;SDS011;6932;51.438;5.470;2023-07-24T16:47:42;7.40;;;4.73;;
13720;SDS011;6932;51.438;5.470;2023-07-24T16:50:08;5.07;;;4.30;;
13720;SDS011;6932;51.438;5.470;2023-07-24T16:52:34;5.10;;;4.60;;
13720;SDS011;6932;51.438;5.470;2023-07-24T16:55:00;6.97;;;4.90;;
13720;SDS011;6932;51.438;5.470;2023-07-24T16:57:26;7.57;;;4.87;;
13720;SDS011;6932;51.438;5.470;2023-07-24T16:59:52;6.87;;;4.33;;
13720;SDS011;6932;51.438;5.470;2023-07-24T17:02:20;6.50;;;3.83;;
13720;SDS011;6932;51.438;5.470;2023-07-24T17:04:46;4.93;;;3.43;;
13720;SDS011;6932;51.438;5.470;2023-07-24T17:07:12;4.47;;;3.10;;
13720;SDS011;6932;51.438;5.470;2023-07-24T17:09:37;6.73;;;3.40;;
13720;SDS011;6932;51.438;5.470;2023-07-24T17:12:03;7.33;;;3.10;;
13720;SDS011;6932;51.438;5.470;2023-07-24T17:14:30;4.67;;;2.70;;
13720;SDS011;6932;51.438;5.470;2023-07-24T17:16:56;4.50;;;2.93;;
13720;SDS011;6932;51.438;5.470;2023-07-24T17:19:21;5.43;;;2.70;;
13720;SDS011;6932;51.438;5.470;2023-07-24T17:21:48;3.73;;;2.40;;
13720;SDS011;6932;51.438;5.470;2023-07-24T17:24:14;4.13;;;2.20;;
13720;SDS011;6932;51.438;5.470;2023-07-24T17:26:40;3.20;;;2.03;;
13720;SDS011;6932;51.438;5.470;2023-07-24T17:29:06;3.57;;;2.00;;
13720;SDS011;6932;51.438;5.470;2023-07-24T17:31:32;3.33;;;1.93;;
13720;SDS011;6932;51.438;5.470;2023-07-24T17:33:58;3.60;;;1.80;;
13720;SDS011;6932;51.438;5.470;2023-07-24T17:36:24;3.63;;;1.80;;
13720;SDS011;6932;51.438;5.470;2023-07-24T17:38:51;2.77;;;1.60;;
13720;SDS011;6932;51.438;5.470;2023-07-24T17:41:17;3.20;;;1.80;;
13720;SDS011;6932;51.438;5.470;2023-07-24T17:43:43;2.20;;;1.40;;
13720;SDS011;6932;51.438;5.470;2023-07-24T17:46:08;3.70;;;1.57;;
13720;SDS011;6932;51.438;5.470;2023-07-24T17:48:34;2.30;;;1.47;;
13720;SDS011;6932;51.438;5.470;2023-07-24T17:51:02;2.97;;;1.40;;
13720;SDS011;6932;51.438;5.470;2023-07-24T17:53:28;2.80;;;1.43;;
13720;SDS011;6932;51.438;5.470;2023-07-24T17:55:54;2.97;;;1.20;;
13720;SDS011;6932;51.438;5.470;2023-07-24T17:58:19;2.27;;;1.53;;
13720;SDS011;6932;51.438;5.470;2023-07-24T18:00:45;2.20;;;1.30;;
13720;SDS011;6932;51.438;5.470;2023-07-24T18:03:11;1.63;;;1.40;;
13720;SDS011;6932;51.438;5.470;2023-07-24T18:05:38;2.00;;;1.33;;
13720;SDS011;6932;51.438;5.470;2023-07-24T18:08:04;2.80;;;1.60;;
13720;SDS011;6932;51.438;5.470;2023-07-24T18:10:30;2.40;;;1.37;;
13720;SDS011;6932;51.438;5.470;2023-07-24T18:12:56;2.13;;;1.30;;
13720;SDS011;6932;51.438;5.470;2023-07-24T18:15:22;2.30;;;1.67;;
13720;SDS011;6932;51.438;5.470;2023-07-24T18:17:49;2.43;;;1.40;;
13720;SDS011;6932;51.438;5.470;2023-07-24T18:20:15;1.97;;;1.30;;
13720;SDS011;6932;51.438;5.470;2023-07-24T18:22:41;2.50;;;1.60;;
13720;SDS011;6932;51.438;5.470;2023-07-24T18:25:08;2.23;;;1.50;;
13720;SDS011;6932;51.438;5.470;2023-07-24T18:27:35;4.00;;;1.70;;
13720;SDS011;6932;51.438;5.470;2023-07-24T18:30:00;2.87;;;1.77;;
13720;SDS011;6932;51.438;5.470;2023-07-24T18:32:26;2.03;;;1.70;;
13720;SDS011;6932;51.438;5.470;2023-07-24T18:34:52;2.97;;;1.60;;
13720;SDS011;6932;51.438;5.470;2023-07-24T18:37:18;3.57;;;1.67;;
13720;SDS011;6932;51.438;5.470;2023-07-24T18:39:43;1.63;;;1.50;;
13720;SDS011;6932;51.438;5.470;2023-07-24T18:42:09;2.20;;;1.43;;
13720;SDS011;6932;51.438;5.470;2023-07-24T18:44:35;4.57;;;1.60;;
13720;SDS011;6932;51.438;5.470;2023-07-24T18:47:00;2.00;;;1.60;;
13720;SDS011;6932;51.438;5.470;2023-07-24T18:49:26;1.87;;;1.40;;
13720;SDS011;6932;51.438;5.470;2023-07-24T18:51:52;1.83;;;1.63;;
13720;SDS011;6932;51.438;5.470;2023-07-24T18:54:18;3.20;;;1.70;;